createdAt,value
2019-05-20T00:00:26.519Z,21.63
2019-05-20T00:02:55.967Z,16.27
2019-05-20T00:05:25.715Z,16.57
2019-05-20T00:07:55.290Z,23.53
2019-05-20T00:10:24.745Z,18.67
2019-05-20T00:12:54.337Z,16.70
2019-05-20T00:15:23.751Z,15.33
2019-05-20T00:17:53.341Z,18.00
2019-05-20T00:20:22.728Z,16.97
2019-05-20T00:22:52.142Z,13.33
2019-05-20T00:25:21.724Z,13.77
2019-05-20T00:27:51.128Z,16.10
2019-05-20T00:30:20.724Z,13.27
2019-05-20T00:32:50.114Z,20.23
2019-05-20T00:35:19.500Z,15.17
2019-05-20T00:37:48.911Z,15.30
2019-05-20T00:40:18.289Z,15.33
2019-05-20T00:42:47.685Z,14.57
2019-05-20T00:45:17.284Z,13.90
2019-05-20T00:47:46.699Z,14.03
2019-05-20T00:50:16.184Z,15.27
2019-05-20T00:52:45.794Z,17.37
2019-05-20T00:55:25.721Z,16.80
2019-05-20T00:57:55.141Z,18.87
2019-05-20T01:00:24.740Z,22.53
2019-05-20T01:02:57.012Z,18.77
2019-05-20T01:05:25.266Z,12.80
2019-05-20T01:07:54.663Z,14.50
2019-05-20T01:10:24.131Z,16.50
2019-05-20T01:12:53.992Z,15.27
2019-05-20T01:15:23.799Z,17.70
2019-05-20T01:17:53.185Z,15.43
2019-05-20T01:20:22.616Z,12.50
2019-05-20T01:22:52.019Z,16.03
2019-05-20T01:25:21.424Z,15.90
2019-05-20T01:27:50.951Z,13.37
2019-05-20T01:30:20.680Z,11.90
2019-05-20T01:32:50.051Z,12.93
2019-05-20T01:35:20.019Z,13.80
2019-05-20T01:37:49.450Z,11.73
2019-05-20T01:40:19.032Z,24.60
2019-05-20T01:42:48.430Z,14.27
2019-05-20T01:45:18.120Z,11.57
2019-05-20T01:47:47.540Z,17.70
2019-05-20T01:50:16.906Z,15.53
2019-05-20T01:52:46.337Z,17.70
2019-05-20T01:55:15.843Z,18.00
2019-05-20T01:57:45.262Z,19.03
2019-05-20T02:00:15.128Z,17.03
2019-05-20T02:02:44.772Z,15.63
2019-05-20T02:05:14.567Z,23.00
2019-05-20T02:07:43.958Z,21.17
2019-05-20T02:10:14.111Z,20.23
2019-05-20T02:12:43.459Z,30.50
2019-05-20T02:15:20.294Z,18.50
2019-05-20T02:17:49.693Z,18.33
2019-05-20T02:20:19.095Z,20.83
2019-05-20T02:22:48.469Z,18.70
2019-05-20T02:25:18.477Z,28.83
2019-05-20T02:27:47.979Z,28.33
2019-05-20T02:30:17.799Z,20.47
2019-05-20T02:32:47.162Z,19.77
2019-05-20T02:35:16.665Z,21.20
2019-05-20T02:37:46.093Z,17.60
2019-05-20T02:40:15.990Z,24.40
2019-05-20T02:42:45.371Z,19.40
2019-05-20T02:45:14.860Z,18.10
2019-05-20T02:47:44.293Z,21.03
2019-05-20T02:50:13.982Z,21.90
2019-05-20T02:52:43.877Z,14.80
2019-05-20T02:55:13.505Z,18.53
2019-05-20T02:57:42.982Z,14.33
2019-05-20T03:00:12.538Z,15.20
2019-05-20T03:02:41.934Z,15.87
2019-05-20T03:05:12.139Z,22.70
2019-05-20T03:07:41.539Z,19.27
2019-05-20T03:10:11.220Z,24.70
2019-05-20T03:12:40.624Z,22.77
2019-05-20T03:15:10.122Z,19.23
2019-05-20T03:17:39.502Z,26.67
2019-05-20T03:20:09.199Z,27.33
2019-05-20T03:22:38.578Z,23.60
2019-05-20T03:25:08.959Z,22.10
2019-05-20T03:27:38.641Z,18.20
2019-05-20T03:30:08.835Z,18.40
2019-05-20T03:32:38.229Z,18.20
2019-05-20T03:35:08.221Z,30.70
2019-05-20T03:37:37.599Z,27.60
2019-05-20T03:40:07.941Z,17.47
2019-05-20T03:42:37.329Z,22.93
2019-05-20T03:45:06.955Z,25.30
2019-05-20T03:47:36.346Z,22.20
2019-05-20T03:50:06.342Z,26.63
2019-05-20T03:52:35.718Z,20.13
2019-05-20T03:55:05.247Z,22.83
2019-05-20T03:57:34.688Z,22.87
2019-05-20T04:00:04.408Z,17.53
2019-05-20T04:02:33.809Z,20.90
2019-05-20T04:05:03.579Z,26.43
2019-05-20T04:07:33.190Z,20.97
2019-05-20T04:10:02.617Z,18.93
2019-05-20T04:12:31.992Z,21.47
2019-05-20T04:15:01.439Z,19.67
2019-05-20T04:17:31.034Z,18.00
2019-05-20T04:20:00.428Z,22.73
2019-05-20T04:22:29.991Z,16.17
2019-05-20T04:24:59.379Z,17.53
2019-05-20T04:27:28.973Z,24.13
2019-05-20T04:29:58.357Z,22.70
2019-05-20T04:32:27.735Z,27.83
2019-05-20T04:34:57.738Z,19.90
2019-05-20T04:37:27.119Z,23.80
2019-05-20T04:39:56.508Z,19.87
2019-05-20T04:42:25.892Z,17.83
2019-05-20T04:44:55.289Z,19.20
2019-05-20T04:47:24.687Z,21.50
2019-05-20T04:49:54.082Z,20.40
2019-05-20T04:52:23.565Z,18.03
2019-05-20T04:54:53.053Z,13.73
2019-05-20T04:57:22.485Z,23.43
2019-05-20T04:59:51.930Z,19.23
2019-05-20T05:02:21.346Z,16.90
2019-05-20T05:04:50.715Z,20.40
2019-05-20T05:07:20.124Z,15.27
2019-05-20T05:09:49.512Z,20.63
2019-05-20T05:12:18.961Z,17.90
2019-05-20T05:14:48.408Z,21.80
2019-05-20T05:17:17.826Z,16.97
2019-05-20T05:19:47.261Z,16.50
2019-05-20T05:22:16.709Z,17.07
2019-05-20T05:24:46.188Z,16.27
2019-05-20T05:27:15.972Z,19.40
2019-05-20T05:29:45.408Z,19.97
2019-05-20T05:32:16.500Z,16.30
2019-05-20T05:34:45.883Z,19.03
2019-05-20T05:37:15.355Z,20.57
2019-05-20T05:39:44.757Z,18.00
2019-05-20T05:42:14.126Z,16.47
2019-05-20T05:44:43.535Z,18.47
2019-05-20T05:47:12.902Z,20.23
2019-05-20T05:49:42.398Z,17.70
2019-05-20T05:52:11.813Z,17.40
2019-05-20T05:54:41.256Z,18.70
2019-05-20T05:57:10.643Z,19.17
2019-05-20T05:59:40.038Z,18.33
2019-05-20T06:02:09.609Z,12.97
2019-05-20T06:04:38.986Z,19.63
2019-05-20T06:07:08.408Z,22.13
2019-05-20T06:09:37.971Z,20.47
2019-05-20T06:12:07.576Z,18.30
2019-05-20T06:14:36.972Z,15.53
2019-05-20T06:17:06.362Z,17.50
2019-05-20T06:19:35.766Z,17.33
2019-05-20T06:22:05.222Z,19.60
2019-05-20T06:24:34.600Z,16.63
2019-05-20T06:27:04.005Z,15.23
2019-05-20T06:29:33.536Z,21.10
2019-05-20T06:32:03.071Z,22.23
2019-05-20T06:34:32.772Z,17.00
2019-05-20T06:37:04.225Z,15.07
2019-05-20T06:39:34.346Z,13.53
2019-05-20T06:42:03.853Z,19.00
2019-05-20T06:44:33.252Z,22.83
2019-05-20T06:47:02.839Z,16.10
2019-05-20T06:49:32.244Z,18.07
2019-05-20T06:52:01.623Z,15.00
2019-05-20T06:54:31.009Z,18.47
2019-05-20T06:57:00.382Z,29.83
2019-05-20T06:59:29.780Z,16.10
2019-05-20T07:01:59.275Z,15.20
2019-05-20T07:04:28.772Z,26.87
2019-05-20T07:06:58.207Z,12.00
2019-05-20T07:09:31.205Z,17.60
2019-05-20T07:12:00.739Z,13.60
2019-05-20T07:14:30.565Z,20.67
2019-05-20T07:17:00.225Z,14.00
2019-05-20T07:19:29.838Z,12.90
2019-05-20T07:21:59.356Z,15.20
2019-05-20T07:24:28.737Z,18.00
2019-05-20T07:26:58.165Z,22.93
2019-05-20T07:29:27.536Z,21.00
2019-05-20T07:31:57.032Z,13.80
2019-05-20T07:34:26.667Z,13.70
2019-05-20T07:37:03.116Z,16.80
2019-05-20T07:39:27.320Z,16.50
2019-05-20T07:41:56.696Z,18.67
2019-05-20T07:44:26.091Z,17.40
2019-05-20T07:46:55.895Z,24.03
2019-05-20T07:49:25.699Z,11.07
2019-05-20T07:51:56.045Z,14.70
2019-05-20T07:54:26.840Z,11.87
2019-05-20T07:56:59.698Z,14.50
2019-05-20T07:59:31.636Z,17.80
2019-05-20T08:02:01.300Z,15.37
2019-05-20T08:04:30.762Z,12.00
2019-05-20T08:07:00.133Z,13.47
2019-05-20T08:09:29.596Z,13.33
2019-05-20T08:11:59.020Z,16.50
2019-05-20T08:14:28.433Z,13.70
2019-05-20T08:16:57.799Z,14.57
2019-05-20T08:19:27.204Z,25.63
2019-05-20T08:21:56.617Z,23.27
2019-05-20T08:24:26.186Z,12.93
2019-05-20T08:26:55.680Z,22.47
2019-05-20T08:29:25.059Z,17.03
2019-05-20T08:31:54.563Z,14.20
2019-05-20T08:34:27.412Z,16.07
2019-05-20T08:36:56.922Z,12.70
2019-05-20T08:39:26.476Z,15.70
2019-05-20T08:41:56.005Z,13.30
2019-05-20T08:44:25.583Z,17.07
2019-05-20T08:46:54.983Z,13.00
2019-05-20T08:49:24.394Z,20.60
2019-05-20T08:51:54.472Z,17.70
2019-05-20T08:54:23.883Z,16.83
2019-05-20T08:56:53.375Z,18.20
2019-05-20T08:59:22.865Z,17.17
2019-05-20T09:01:52.243Z,16.40
2019-05-20T09:04:21.754Z,17.30
2019-05-20T09:06:51.281Z,15.20
2019-05-20T09:09:20.821Z,14.80
2019-05-20T09:11:50.403Z,19.00
2019-05-20T09:14:19.882Z,18.90
2019-05-20T09:16:49.259Z,16.10
2019-05-20T09:19:18.643Z,11.43
2019-05-20T09:21:48.088Z,14.93
2019-05-20T09:24:18.994Z,14.60
2019-05-20T09:26:48.622Z,15.30
2019-05-20T09:29:18.297Z,16.03
2019-05-20T09:31:47.927Z,17.37
2019-05-20T09:34:17.492Z,21.87
2019-05-20T09:36:46.991Z,17.07
2019-05-20T09:39:16.506Z,17.13
2019-05-20T09:41:45.961Z,18.13
2019-05-20T09:44:15.371Z,17.27
2019-05-20T09:46:44.904Z,13.90
2019-05-20T09:49:14.382Z,16.73
2019-05-20T09:51:43.777Z,17.40
2019-05-20T09:54:13.751Z,16.53
2019-05-20T09:56:43.147Z,15.60
2019-05-20T09:59:16.245Z,17.20
2019-05-20T10:01:43.647Z,17.33
2019-05-20T10:04:13.120Z,19.00
2019-05-20T10:06:42.483Z,13.30
2019-05-20T10:09:12.567Z,18.53
2019-05-20T10:11:42.052Z,31.07
2019-05-20T10:14:11.478Z,15.83
2019-05-20T10:16:40.877Z,16.40
2019-05-20T10:19:10.279Z,15.00
2019-05-20T10:21:39.911Z,14.67
2019-05-20T10:24:09.528Z,19.00
2019-05-20T10:26:39.345Z,17.53
2019-05-20T10:29:08.888Z,18.43
2019-05-20T10:31:38.783Z,30.03
2019-05-20T10:34:08.174Z,21.43
2019-05-20T10:36:37.568Z,21.77
2019-05-20T10:39:08.473Z,21.37
2019-05-20T10:41:38.152Z,23.77
2019-05-20T10:44:07.533Z,25.53
2019-05-20T10:46:37.173Z,22.90
2019-05-20T10:49:06.664Z,23.30
2019-05-20T10:51:36.180Z,20.60
2019-05-20T10:54:05.773Z,17.83
2019-05-20T10:56:35.286Z,23.03
2019-05-20T10:59:04.879Z,27.13
2019-05-20T11:01:34.480Z,23.67
2019-05-20T11:04:04.056Z,25.47
2019-05-20T11:06:33.594Z,21.97
2019-05-20T11:09:13.772Z,27.90
2019-05-20T11:11:34.145Z,28.73
2019-05-20T11:14:03.720Z,24.97
2019-05-20T11:16:33.468Z,26.27
2019-05-20T11:19:02.909Z,22.90
2019-05-20T11:21:32.393Z,21.97
2019-05-20T11:24:01.855Z,23.30
2019-05-20T11:26:31.220Z,22.30
2019-05-20T11:29:00.740Z,18.23
2019-05-20T11:31:30.152Z,18.47
2019-05-20T11:33:59.543Z,19.40
2019-05-20T11:36:29.038Z,20.53
2019-05-20T11:38:58.569Z,23.23
2019-05-20T11:41:52.260Z,18.47
2019-05-20T11:43:59.357Z,20.83
2019-05-20T11:46:28.791Z,20.80
2019-05-20T11:48:58.182Z,17.33
2019-05-20T11:51:27.792Z,16.43
2019-05-20T11:53:57.273Z,22.63
2019-05-20T11:56:26.687Z,20.47
2019-05-20T11:58:56.210Z,19.20
2019-05-20T12:01:25.709Z,22.97
2019-05-20T12:03:55.095Z,18.80
2019-05-20T12:06:24.576Z,18.77
2019-05-20T12:08:54.058Z,19.37
2019-05-20T12:11:23.503Z,17.00
2019-05-20T12:13:52.971Z,17.50
2019-05-20T12:16:22.428Z,21.83
2019-05-20T12:18:52.715Z,19.97
2019-05-20T12:21:22.173Z,19.37
2019-05-20T12:23:51.624Z,18.37
2019-05-20T12:26:22.759Z,21.37
2019-05-20T12:28:52.373Z,23.60
2019-05-20T12:31:21.778Z,17.20
2019-05-20T12:33:51.193Z,17.73
2019-05-20T12:36:26.668Z,22.77
2019-05-20T12:38:56.069Z,21.40
2019-05-20T12:41:26.073Z,29.33
2019-05-20T12:44:10.741Z,14.10
2019-05-20T12:46:27.010Z,17.03
2019-05-20T12:48:56.479Z,14.60
2019-05-20T12:51:26.198Z,11.53
2019-05-20T12:53:55.763Z,13.67
2019-05-20T12:56:25.287Z,12.97
2019-05-20T12:58:54.678Z,13.53
2019-05-20T13:01:24.418Z,12.50
2019-05-20T13:03:54.858Z,16.23
2019-05-20T13:06:25.478Z,11.13
2019-05-20T13:08:55.881Z,13.40
2019-05-20T13:11:25.371Z,13.60
2019-05-20T13:13:54.837Z,14.60
2019-05-20T13:16:24.253Z,15.60
2019-05-20T13:18:56.317Z,15.57
2019-05-20T13:21:25.364Z,19.60
2019-05-20T13:23:55.091Z,16.53
2019-05-20T13:26:24.518Z,20.67
2019-05-20T13:28:59.400Z,20.33
2019-05-20T13:31:28.028Z,26.83
2019-05-20T13:33:58.697Z,23.43
2019-05-20T13:36:28.265Z,16.43
2019-05-20T13:38:58.127Z,22.30
2019-05-20T13:41:27.751Z,34.83
2019-05-20T13:43:57.670Z,17.90
2019-05-20T13:46:27.817Z,26.33
2019-05-20T13:48:57.406Z,22.40
2019-05-20T13:51:30.198Z,22.10
2019-05-20T13:53:59.977Z,27.50
2019-05-20T13:56:29.383Z,25.83
2019-05-20T13:58:58.897Z,20.00
2019-05-20T14:01:28.340Z,27.93
2019-05-20T14:03:58.074Z,26.40
2019-05-20T14:06:27.500Z,24.90
2019-05-20T14:08:57.100Z,24.30
2019-05-20T14:11:34.648Z,22.17
2019-05-20T14:13:58.146Z,22.67
2019-05-20T14:16:27.635Z,22.80
2019-05-20T14:18:58.059Z,27.17
2019-05-20T14:21:27.800Z,28.17
2019-05-20T14:23:57.229Z,24.20
2019-05-20T14:26:26.867Z,24.97
2019-05-20T14:28:56.623Z,28.40
2019-05-20T14:31:26.072Z,24.83
2019-05-20T14:33:55.630Z,29.63
2019-05-20T14:36:39.297Z,32.17
2019-05-20T14:38:56.422Z,28.10
2019-05-20T14:41:26.259Z,27.50
2019-05-20T14:43:55.815Z,28.90
2019-05-20T14:46:25.399Z,30.87
2019-05-20T14:48:54.796Z,33.07
2019-05-20T14:51:24.209Z,31.50
2019-05-20T14:53:55.687Z,42.20
2019-05-20T14:56:25.096Z,33.03
2019-05-20T14:58:55.844Z,36.57
2019-05-20T15:01:25.336Z,73.57
2019-05-20T15:03:57.822Z,44.30
2019-05-20T15:06:28.245Z,51.80
2019-05-20T15:08:59.257Z,61.40
2019-05-20T15:11:37.976Z,61.57
2019-05-20T15:14:50.460Z,59.60
2019-05-20T15:17:38.770Z,61.93
2019-05-20T15:20:20.356Z,54.13
2019-05-20T15:24:03.338Z,53.57
2019-05-20T15:32:31.611Z,49.23
